sensor_id;sensor_type;location;lat;lon;timestamp;P1;durP1;ratioP1;P2;durP2;ratioP2
23406;SDS011;11876;53.438;18.942;2023-12-28T00:01:42;41.25;;;21.65;;
23406;SDS011;11876;53.438;18.942;2023-12-28T00:04:45;44.55;;;22.92;;
23406;SDS011;11876;53.438;18.942;2023-12-28T00:07:48;41.53;;;22.73;;
23406;SDS011;11876;53.438;18.942;2023-12-28T00:10:59;39.85;;;22.15;;
23406;SDS011;11876;53.438;18.942;2023-12-28T00:14:02;49.35;;;24.52;;
23406;SDS011;11876;53.438;18.942;2023-12-28T00:17:07;46.55;;;24.60;;
23406;SDS011;11876;53.438;18.942;2023-12-28T00:20:10;42.75;;;21.95;;
23406;SDS011;11876;53.438;18.942;2023-12-28T00:23:13;45.50;;;22.83;;
23406;SDS011;11876;53.438;18.942;2023-12-28T00:26:17;46.58;;;25.70;;
23406;SDS011;11876;53.438;18.942;2023-12-28T00:29:36;43.33;;;22.83;;
23406;SDS011;11876;53.438;18.942;2023-12-28T00:32:40;44.80;;;24.90;;
23406;SDS011;11876;53.438;18.942;2023-12-28T00:35:46;40.58;;;23.65;;
23406;SDS011;11876;53.438;18.942;2023-12-28T00:38:49;47.67;;;24.20;;
23406;SDS011;11876;53.438;18.942;2023-12-28T00:41:51;51.25;;;24.30;;
23406;SDS011;11876;53.438;18.942;2023-12-28T00:44:54;42.45;;;20.92;;
23406;SDS011;11876;53.438;18.942;2023-12-28T00:47:56;42.42;;;23.35;;
23406;SDS011;11876;53.438;18.942;2023-12-28T00:51:00;34.00;;;20.02;;
23406;SDS011;11876;53.438;18.942;2023-12-28T00:54:02;46.45;;;24.67;;
23406;SDS011;11876;53.438;18.942;2023-12-28T00:57:05;47.17;;;24.25;;
23406;SDS011;11876;53.438;18.942;2023-12-28T01:00:08;37.58;;;21.05;;
23406;SDS011;11876;53.438;18.942;2023-12-28T01:03:11;50.97;;;28.77;;
23406;SDS011;11876;53.438;18.942;2023-12-28T01:06:14;45.63;;;27.75;;
23406;SDS011;11876;53.438;18.942;2023-12-28T01:09:19;43.90;;;24.70;;
23406;SDS011;11876;53.438;18.942;2023-12-28T01:12:25;59.13;;;32.53;;
23406;SDS011;11876;53.438;18.942;2023-12-28T01:15:28;50.97;;;29.38;;
23406;SDS011;11876;53.438;18.942;2023-12-28T01:18:30;51.85;;;29.67;;
23406;SDS011;11876;53.438;18.942;2023-12-28T01:21:33;52.53;;;28.25;;
23406;SDS011;11876;53.438;18.942;2023-12-28T01:24:36;58.95;;;29.02;;
23406;SDS011;11876;53.438;18.942;2023-12-28T01:27:42;57.45;;;28.63;;
23406;SDS011;11876;53.438;18.942;2023-12-28T01:30:46;53.63;;;27.55;;
23406;SDS011;11876;53.438;18.942;2023-12-28T01:33:48;53.40;;;28.90;;
23406;SDS011;11876;53.438;18.942;2023-12-28T01:36:51;56.70;;;28.77;;
23406;SDS011;11876;53.438;18.942;2023-12-28T01:39:54;52.63;;;30.05;;
23406;SDS011;11876;53.438;18.942;2023-12-28T01:42:58;52.05;;;29.98;;
23406;SDS011;11876;53.438;18.942;2023-12-28T01:46:05;47.00;;;26.58;;
23406;SDS011;11876;53.438;18.942;2023-12-28T01:49:11;55.83;;;29.27;;
23406;SDS011;11876;53.438;18.942;2023-12-28T01:52:15;49.35;;;28.88;;
23406;SDS011;11876;53.438;18.942;2023-12-28T01:55:18;53.42;;;29.60;;
23406;SDS011;11876;53.438;18.942;2023-12-28T01:58:24;51.92;;;28.48;;
23406;SDS011;11876;53.438;18.942;2023-12-28T02:01:27;48.40;;;25.65;;
23406;SDS011;11876;53.438;18.942;2023-12-28T02:04:30;41.85;;;22.17;;
23406;SDS011;11876;53.438;18.942;2023-12-28T02:07:39;49.90;;;25.65;;
23406;SDS011;11876;53.438;18.942;2023-12-28T02:10:45;45.83;;;23.13;;
23406;SDS011;11876;53.438;18.942;2023-12-28T02:13:48;36.20;;;18.47;;
23406;SDS011;11876;53.438;18.942;2023-12-28T02:16:56;47.33;;;24.63;;
23406;SDS011;11876;53.438;18.942;2023-12-28T02:20:02;45.47;;;24.00;;
23406;SDS011;11876;53.438;18.942;2023-12-28T02:23:08;47.72;;;22.48;;
23406;SDS011;11876;53.438;18.942;2023-12-28T02:26:11;37.53;;;21.80;;
23406;SDS011;11876;53.438;18.942;2023-12-28T02:29:14;39.35;;;21.40;;
23406;SDS011;11876;53.438;18.942;2023-12-28T02:32:16;36.40;;;21.00;;
23406;SDS011;11876;53.438;18.942;2023-12-28T02:35:35;43.53;;;21.10;;
23406;SDS011;11876;53.438;18.942;2023-12-28T02:38:42;41.08;;;20.27;;
23406;SDS011;11876;53.438;18.942;2023-12-28T02:41:45;38.87;;;19.20;;
23406;SDS011;11876;53.438;18.942;2023-12-28T02:44:48;39.42;;;19.85;;
23406;SDS011;11876;53.438;18.942;2023-12-28T02:47:52;35.03;;;18.88;;
23406;SDS011;11876;53.438;18.942;2023-12-28T02:50:55;37.08;;;18.00;;
23406;SDS011;11876;53.438;18.942;2023-12-28T02:53:58;31.42;;;16.00;;
23406;SDS011;11876;53.438;18.942;2023-12-28T02:57:01;36.57;;;16.60;;
23406;SDS011;11876;53.438;18.942;2023-12-28T03:00:07;32.28;;;16.73;;
23406;SDS011;11876;53.438;18.942;2023-12-28T03:03:13;33.17;;;15.20;;
23406;SDS011;11876;53.438;18.942;2023-12-28T03:06:16;28.92;;;13.73;;
23406;SDS011;11876;53.438;18.942;2023-12-28T03:09:19;32.30;;;15.05;;
23406;SDS011;11876;53.438;18.942;2023-12-28T03:12:26;28.70;;;12.88;;
23406;SDS011;11876;53.438;18.942;2023-12-28T03:15:30;24.95;;;13.20;;
23406;SDS011;11876;53.438;18.942;2023-12-28T03:18:32;23.73;;;12.55;;
23406;SDS011;11876;53.438;18.942;2023-12-28T03:21:39;26.38;;;12.90;;
23406;SDS011;11876;53.438;18.942;2023-12-28T03:24:43;25.80;;;12.88;;
23406;SDS011;11876;53.438;18.942;2023-12-28T03:27:45;21.50;;;12.18;;
23406;SDS011;11876;53.438;18.942;2023-12-28T03:30:48;23.67;;;11.32;;
23406;SDS011;11876;53.438;18.942;2023-12-28T03:33:50;25.35;;;12.13;;
23406;SDS011;11876;53.438;18.942;2023-12-28T03:36:53;21.25;;;10.75;;
23406;SDS011;11876;53.438;18.942;2023-12-28T03:39:56;25.75;;;11.75;;
23406;SDS011;11876;53.438;18.942;2023-12-28T03:42:59;19.33;;;10.35;;
23406;SDS011;11876;53.438;18.942;2023-12-28T03:46:01;21.00;;;11.02;;
23406;SDS011;11876;53.438;18.942;2023-12-28T03:49:04;21.33;;;11.48;;
23406;SDS011;11876;53.438;18.942;2023-12-28T03:52:07;18.63;;;9.07;;
23406;SDS011;11876;53.438;18.942;2023-12-28T03:55:11;20.73;;;10.90;;
23406;SDS011;11876;53.438;18.942;2023-12-28T03:58:16;19.48;;;10.75;;
23406;SDS011;11876;53.438;18.942;2023-12-28T04:01:20;19.17;;;10.23;;
23406;SDS011;11876;53.438;18.942;2023-12-28T04:04:24;26.83;;;13.05;;
23406;SDS011;11876;53.438;18.942;2023-12-28T04:07:27;24.23;;;11.93;;
23406;SDS011;11876;53.438;18.942;2023-12-28T04:10:31;23.23;;;10.93;;
23406;SDS011;11876;53.438;18.942;2023-12-28T04:13:35;25.05;;;12.15;;
23406;SDS011;11876;53.438;18.942;2023-12-28T04:16:42;25.77;;;11.75;;
23406;SDS011;11876;53.438;18.942;2023-12-28T04:19:47;23.80;;;12.55;;
23406;SDS011;11876;53.438;18.942;2023-12-28T04:22:50;17.88;;;10.45;;
23406;SDS011;11876;53.438;18.942;2023-12-28T04:25:52;21.60;;;11.50;;
23406;SDS011;11876;53.438;18.942;2023-12-28T04:28:55;21.42;;;13.32;;
23406;SDS011;11876;53.438;18.942;2023-12-28T04:32:01;21.98;;;12.50;;
23406;SDS011;11876;53.438;18.942;2023-12-28T04:35:03;21.80;;;12.77;;
23406;SDS011;11876;53.438;18.942;2023-12-28T04:38:08;28.08;;;12.93;;
23406;SDS011;11876;53.438;18.942;2023-12-28T04:41:10;26.05;;;14.95;;
23406;SDS011;11876;53.438;18.942;2023-12-28T04:44:18;24.05;;;13.13;;
23406;SDS011;11876;53.438;18.942;2023-12-28T04:47:21;29.30;;;17.20;;
23406;SDS011;11876;53.438;18.942;2023-12-28T04:50:23;25.13;;;14.88;;
23406;SDS011;11876;53.438;18.942;2023-12-28T04:53:26;23.27;;;11.18;;
23406;SDS011;11876;53.438;18.942;2023-12-28T04:56:29;30.13;;;15.25;;
23406;SDS011;11876;53.438;18.942;2023-12-28T04:59:32;30.05;;;16.83;;
23406;SDS011;11876;53.438;18.942;2023-12-28T05:02:35;28.00;;;17.33;;
23406;SDS011;11876;53.438;18.942;2023-12-28T05:05:40;28.15;;;15.13;;
23406;SDS011;11876;53.438;18.942;2023-12-28T05:08:43;30.73;;;17.10;;
23406;SDS011;11876;53.438;18.942;2023-12-28T05:11:48;29.15;;;17.02;;
23406;SDS011;11876;53.438;18.942;2023-12-28T05:14:51;32.30;;;15.77;;
23406;SDS011;11876;53.438;18.942;2023-12-28T05:17:53;28.85;;;16.52;;
23406;SDS011;11876;53.438;18.942;2023-12-28T05:20:56;29.55;;;16.67;;
23406;SDS011;11876;53.438;18.942;2023-12-28T05:23:59;28.33;;;16.73;;
23406;SDS011;11876;53.438;18.942;2023-12-28T05:27:01;30.70;;;17.17;;
23406;SDS011;11876;53.438;18.942;2023-12-28T05:30:04;33.78;;;18.65;;
23406;SDS011;11876;53.438;18.942;2023-12-28T05:33:08;31.50;;;17.48;;
23406;SDS011;11876;53.438;18.942;2023-12-28T05:36:11;27.77;;;16.80;;
23406;SDS011;11876;53.438;18.942;2023-12-28T05:39:13;34.10;;;19.30;;
23406;SDS011;11876;53.438;18.942;2023-12-28T05:42:16;29.90;;;17.50;;
23406;SDS011;11876;53.438;18.942;2023-12-28T05:45:19;32.38;;;18.25;;
23406;SDS011;11876;53.438;18.942;2023-12-28T05:48:21;34.50;;;18.58;;
23406;SDS011;11876;53.438;18.942;2023-12-28T05:51:24;28.73;;;17.80;;
23406;SDS011;11876;53.438;18.942;2023-12-28T05:54:28;31.08;;;17.50;;
23406;SDS011;11876;53.438;18.942;2023-12-28T05:57:30;29.85;;;17.75;;
23406;SDS011;11876;53.438;18.942;2023-12-28T06:00:33;28.80;;;17.48;;
23406;SDS011;11876;53.438;18.942;2023-12-28T06:03:36;33.50;;;17.63;;
23406;SDS011;11876;53.438;18.942;2023-12-28T06:06:38;34.78;;;18.38;;
23406;SDS011;11876;53.438;18.942;2023-12-28T06:09:42;32.63;;;18.35;;
23406;SDS011;11876;53.438;18.942;2023-12-28T06:12:45;30.70;;;19.33;;
23406;SDS011;11876;53.438;18.942;2023-12-28T06:15:48;28.13;;;18.40;;
23406;SDS011;11876;53.438;18.942;2023-12-28T06:18:51;29.40;;;17.20;;
23406;SDS011;11876;53.438;18.942;2023-12-28T06:21:56;28.23;;;15.95;;
23406;SDS011;11876;53.438;18.942;2023-12-28T06:25:00;28.67;;;16.55;;
23406;SDS011;11876;53.438;18.942;2023-12-28T06:28:02;28.38;;;17.55;;
23406;SDS011;11876;53.438;18.942;2023-12-28T06:31:05;30.88;;;16.45;;
23406;SDS011;11876;53.438;18.942;2023-12-28T06:34:08;30.45;;;16.85;;
23406;SDS011;11876;53.438;18.942;2023-12-28T06:37:10;28.02;;;15.93;;
23406;SDS011;11876;53.438;18.942;2023-12-28T06:40:13;32.78;;;18.65;;
23406;SDS011;11876;53.438;18.942;2023-12-28T06:43:16;21.70;;;13.73;;
23406;SDS011;11876;53.438;18.942;2023-12-28T06:46:18;32.75;;;16.85;;
23406;SDS011;11876;53.438;18.942;2023-12-28T06:49:21;26.58;;;16.65;;
23406;SDS011;11876;53.438;18.942;2023-12-28T06:52:24;22.70;;;12.37;;
23406;SDS011;11876;53.438;18.942;2023-12-28T06:55:26;28.15;;;15.95;;
23406;SDS011;11876;53.438;18.942;2023-12-28T06:58:30;27.63;;;17.35;;
23406;SDS011;11876;53.438;18.942;2023-12-28T07:01:33;29.70;;;16.50;;
23406;SDS011;11876;53.438;18.942;2023-12-28T07:04:36;24.25;;;16.10;;
23406;SDS011;11876;53.438;18.942;2023-12-28T07:07:39;20.92;;;12.98;;
23406;SDS011;11876;53.438;18.942;2023-12-28T07:10:42;31.20;;;17.67;;
23406;SDS011;11876;53.438;18.942;2023-12-28T07:13:44;27.63;;;16.70;;
23406;SDS011;11876;53.438;18.942;2023-12-28T07:16:47;25.17;;;16.52;;
23406;SDS011;11876;53.438;18.942;2023-12-28T07:19:52;26.10;;;14.90;;
23406;SDS011;11876;53.438;18.942;2023-12-28T07:22:55;24.90;;;13.93;;
23406;SDS011;11876;53.438;18.942;2023-12-28T07:25:58;25.35;;;16.45;;
23406;SDS011;11876;53.438;18.942;2023-12-28T07:29:00;24.23;;;15.27;;
23406;SDS011;11876;53.438;18.942;2023-12-28T07:32:03;21.17;;;13.85;;
23406;SDS011;11876;53.438;18.942;2023-12-28T07:35:06;31.00;;;18.63;;
23406;SDS011;11876;53.438;18.942;2023-12-28T07:38:08;22.88;;;13.98;;
23406;SDS011;11876;53.438;18.942;2023-12-28T07:41:11;22.35;;;13.43;;
23406;SDS011;11876;53.438;18.942;2023-12-28T07:44:13;25.65;;;16.00;;
23406;SDS011;11876;53.438;18.942;2023-12-28T07:47:16;29.38;;;16.73;;
23406;SDS011;11876;53.438;18.942;2023-12-28T07:50:19;33.10;;;19.77;;
23406;SDS011;11876;53.438;18.942;2023-12-28T07:53:25;31.48;;;17.58;;
23406;SDS011;11876;53.438;18.942;2023-12-28T07:56:28;31.30;;;18.55;;
23406;SDS011;11876;53.438;18.942;2023-12-28T07:59:30;27.58;;;16.75;;
23406;SDS011;11876;53.438;18.942;2023-12-28T08:02:33;29.80;;;17.60;;
23406;SDS011;11876;53.438;18.942;2023-12-28T08:05:35;32.95;;;19.05;;
23406;SDS011;11876;53.438;18.942;2023-12-28T08:08:38;24.63;;;15.32;;
23406;SDS011;11876;53.438;18.942;2023-12-28T08:11:40;31.95;;;18.42;;
23406;SDS011;11876;53.438;18.942;2023-12-28T08:14:43;28.77;;;16.55;;
23406;SDS011;11876;53.438;18.942;2023-12-28T08:17:46;31.55;;;17.75;;
23406;SDS011;11876;53.438;18.942;2023-12-28T08:20:49;32.90;;;19.27;;
23406;SDS011;11876;53.438;18.942;2023-12-28T08:23:52;35.70;;;20.10;;
23406;SDS011;11876;53.438;18.942;2023-12-28T08:26:54;29.77;;;18.10;;
23406;SDS011;11876;53.438;18.942;2023-12-28T08:30:00;31.15;;;19.08;;
23406;SDS011;11876;53.438;18.942;2023-12-28T08:33:03;26.77;;;15.10;;
23406;SDS011;11876;53.438;18.942;2023-12-28T08:36:07;32.92;;;17.60;;
23406;SDS011;11876;53.438;18.942;2023-12-28T08:39:11;29.25;;;17.35;;
23406;SDS011;11876;53.438;18.942;2023-12-28T08:42:14;32.72;;;17.27;;
23406;SDS011;11876;53.438;18.942;2023-12-28T08:45:16;30.27;;;18.05;;
23406;SDS011;11876;53.438;18.942;2023-12-28T08:48:19;35.58;;;19.42;;
23406;SDS011;11876;53.438;18.942;2023-12-28T08:51:21;32.25;;;16.67;;
23406;SDS011;11876;53.438;18.942;2023-12-28T08:54:25;105.50;;;41.15;;
23406;SDS011;11876;53.438;18.942;2023-12-28T08:57:27;43.97;;;21.55;;
23406;SDS011;11876;53.438;18.942;2023-12-28T09:00:42;29.98;;;16.55;;
23406;SDS011;11876;53.438;18.942;2023-12-28T09:03:50;21.02;;;13.05;;
23406;SDS011;11876;53.438;18.942;2023-12-28T09:06:54;23.85;;;14.25;;
23406;SDS011;11876;53.438;18.942;2023-12-28T09:09:57;17.70;;;11.55;;
23406;SDS011;11876;53.438;18.942;2023-12-28T09:13:00;20.87;;;12.53;;
23406;SDS011;11876;53.438;18.942;2023-12-28T09:16:29;16.48;;;11.35;;
23406;SDS011;11876;53.438;18.942;2023-12-28T09:19:34;22.08;;;13.88;;
23406;SDS011;11876;53.438;18.942;2023-12-28T09:22:37;18.13;;;11.57;;
23406;SDS011;11876;53.438;18.942;2023-12-28T09:25:40;20.00;;;12.85;;
23406;SDS011;11876;53.438;18.942;2023-12-28T09:28:43;19.35;;;11.85;;
23406;SDS011;11876;53.438;18.942;2023-12-28T09:31:45;20.70;;;12.30;;
23406;SDS011;11876;53.438;18.942;2023-12-28T09:34:48;31.50;;;14.27;;
23406;SDS011;11876;53.438;18.942;2023-12-28T09:37:51;20.42;;;11.93;;
23406;SDS011;11876;53.438;18.942;2023-12-28T09:40:54;25.15;;;12.93;;
23406;SDS011;11876;53.438;18.942;2023-12-28T09:44:15;22.52;;;12.38;;
23406;SDS011;11876;53.438;18.942;2023-12-28T09:47:20;18.75;;;11.00;;
23406;SDS011;11876;53.438;18.942;2023-12-28T09:50:23;20.98;;;13.48;;
23406;SDS011;11876;53.438;18.942;2023-12-28T09:53:28;17.10;;;11.70;;
23406;SDS011;11876;53.438;18.942;2023-12-28T09:56:34;21.00;;;13.75;;
23406;SDS011;11876;53.438;18.942;2023-12-28T09:59:37;22.52;;;12.43;;
23406;SDS011;11876;53.438;18.942;2023-12-28T10:02:40;17.87;;;11.87;;
23406;SDS011;11876;53.438;18.942;2023-12-28T10:05:46;17.25;;;11.50;;
23406;SDS011;11876;53.438;18.942;2023-12-28T10:08:49;19.98;;;13.70;;
23406;SDS011;11876;53.438;18.942;2023-12-28T10:11:52;20.95;;;11.20;;
23406;SDS011;11876;53.438;18.942;2023-12-28T10:17:59;16.08;;;10.68;;
23406;SDS011;11876;53.438;18.942;2023-12-28T10:21:02;18.10;;;10.90;;
23406;SDS011;11876;53.438;18.942;2023-12-28T10:24:04;17.10;;;10.63;;
23406;SDS011;11876;53.438;18.942;2023-12-28T10:27:07;18.38;;;10.80;;
23406;SDS011;11876;53.438;18.942;2023-12-28T10:30:10;16.35;;;10.68;;
23406;SDS011;11876;53.438;18.942;2023-12-28T10:33:13;13.23;;;9.02;;
23406;SDS011;11876;53.438;18.942;2023-12-28T10:36:18;15.40;;;10.98;;
23406;SDS011;11876;53.438;18.942;2023-12-28T10:39:21;17.88;;;10.95;;
23406;SDS011;11876;53.438;18.942;2023-12-28T10:42:29;16.73;;;10.85;;
23406;SDS011;11876;53.438;18.942;2023-12-28T10:45:34;16.10;;;10.63;;
23406;SDS011;11876;53.438;18.942;2023-12-28T10:48:38;16.75;;;10.05;;
23406;SDS011;11876;53.438;18.942;2023-12-28T10:51:41;19.42;;;10.90;;
23406;SDS011;11876;53.438;18.942;2023-12-28T10:58:10;13.73;;;9.38;;
23406;SDS011;11876;53.438;18.942;2023-12-28T11:01:37;19.60;;;11.38;;
23406;SDS011;11876;53.438;18.942;2023-12-28T11:04:44;26.60;;;14.25;;
23406;SDS011;11876;53.438;18.942;2023-12-28T11:07:49;43.65;;;25.00;;
23406;SDS011;11876;53.438;18.942;2023-12-28T11:10:58;44.13;;;26.48;;
23406;SDS011;11876;53.438;18.942;2023-12-28T11:14:02;20.92;;;12.52;;
23406;SDS011;11876;53.438;18.942;2023-12-28T11:17:05;17.25;;;10.38;;
23406;SDS011;11876;53.438;18.942;2023-12-28T11:20:08;18.92;;;13.13;;
23406;SDS011;11876;53.438;18.942;2023-12-28T11:23:11;19.95;;;12.73;;
23406;SDS011;11876;53.438;18.942;2023-12-28T11:26:18;19.48;;;11.10;;
23406;SDS011;11876;53.438;18.942;2023-12-28T11:29:22;24.05;;;14.30;;
23406;SDS011;11876;53.438;18.942;2023-12-28T11:32:25;22.58;;;11.73;;
23406;SDS011;11876;53.438;18.942;2023-12-28T11:35:35;24.95;;;13.20;;
23406;SDS011;11876;53.438;18.942;2023-12-28T11:38:38;22.95;;;13.35;;
23406;SDS011;11876;53.438;18.942;2023-12-28T11:41:43;21.98;;;13.45;;
23406;SDS011;11876;53.438;18.942;2023-12-28T11:44:45;24.55;;;14.30;;
23406;SDS011;11876;53.438;18.942;2023-12-28T11:48:02;25.75;;;14.00;;
23406;SDS011;11876;53.438;18.942;2023-12-28T11:51:05;19.83;;;12.27;;
23406;SDS011;11876;53.438;18.942;2023-12-28T11:54:08;21.83;;;12.45;;
23406;SDS011;11876;53.438;18.942;2023-12-28T11:57:11;24.88;;;13.48;;
23406;SDS011;11876;53.438;18.942;2023-12-28T12:00:13;17.17;;;11.55;;
23406;SDS011;11876;53.438;18.942;2023-12-28T12:03:15;20.02;;;11.50;;
23406;SDS011;11876;53.438;18.942;2023-12-28T12:06:19;27.17;;;13.68;;
23406;SDS011;11876;53.438;18.942;2023-12-28T12:09:21;22.70;;;13.18;;
23406;SDS011;11876;53.438;18.942;2023-12-28T12:12:25;23.08;;;12.43;;
23406;SDS011;11876;53.438;18.942;2023-12-28T12:15:28;22.55;;;12.38;;
23406;SDS011;11876;53.438;18.942;2023-12-28T12:18:32;21.40;;;11.45;;
23406;SDS011;11876;53.438;18.942;2023-12-28T12:21:35;23.05;;;13.52;;
23406;SDS011;11876;53.438;18.942;2023-12-28T12:24:37;22.70;;;13.27;;
23406;SDS011;11876;53.438;18.942;2023-12-28T12:27:41;22.40;;;12.73;;
23406;SDS011;11876;53.438;18.942;2023-12-28T12:30:50;18.00;;;10.82;;
23406;SDS011;11876;53.438;18.942;2023-12-28T12:33:57;15.70;;;9.50;;
23406;SDS011;11876;53.438;18.942;2023-12-28T12:37:00;17.55;;;11.63;;
23406;SDS011;11876;53.438;18.942;2023-12-28T12:40:03;14.05;;;10.43;;
23406;SDS011;11876;53.438;18.942;2023-12-28T12:43:08;22.23;;;13.05;;
23406;SDS011;11876;53.438;18.942;2023-12-28T12:46:11;117.25;;;51.35;;
23406;SDS011;11876;53.438;18.942;2023-12-28T12:49:15;88.90;;;45.53;;
23406;SDS011;11876;53.438;18.942;2023-12-28T12:52:19;15.02;;;9.40;;
23406;SDS011;11876;53.438;18.942;2023-12-28T12:55:25;21.20;;;11.00;;
23406;SDS011;11876;53.438;18.942;2023-12-28T12:58:28;10.07;;;7.00;;
23406;SDS011;11876;53.438;18.942;2023-12-28T13:01:34;14.32;;;8.20;;
23406;SDS011;11876;53.438;18.942;2023-12-28T13:04:38;15.50;;;8.85;;
23406;SDS011;11876;53.438;18.942;2023-12-28T13:07:40;18.75;;;10.45;;
23406;SDS011;11876;53.438;18.942;2023-12-28T13:10:43;21.63;;;11.60;;
23406;SDS011;11876;53.438;18.942;2023-12-28T13:13:45;15.15;;;9.57;;
23406;SDS011;11876;53.438;18.942;2023-12-28T13:16:48;17.08;;;8.80;;
23406;SDS011;11876;53.438;18.942;2023-12-28T13:19:59;25.40;;;10.40;;
23406;SDS011;11876;53.438;18.942;2023-12-28T13:23:02;14.45;;;8.68;;
23406;SDS011;11876;53.438;18.942;2023-12-28T13:26:08;15.00;;;9.40;;
23406;SDS011;11876;53.438;18.942;2023-12-28T13:29:11;19.20;;;11.30;;
23406;SDS011;11876;53.438;18.942;2023-12-28T13:32:13;17.23;;;9.65;;
23406;SDS011;11876;53.438;18.942;2023-12-28T13:35:16;20.30;;;10.20;;
23406;SDS011;11876;53.438;18.942;2023-12-28T13:38:19;15.32;;;8.77;;
23406;SDS011;11876;53.438;18.942;2023-12-28T13:41:21;15.48;;;9.75;;
23406;SDS011;11876;53.438;18.942;2023-12-28T13:44:24;17.40;;;9.68;;
23406;SDS011;11876;53.438;18.942;2023-12-28T13:47:26;23.27;;;13.30;;
23406;SDS011;11876;53.438;18.942;2023-12-28T13:50:29;37.55;;;16.67;;
23406;SDS011;11876;53.438;18.942;2023-12-28T13:53:32;18.50;;;10.18;;
23406;SDS011;11876;53.438;18.942;2023-12-28T13:56:42;14.60;;;9.43;;
23406;SDS011;11876;53.438;18.942;2023-12-28T13:59:46;20.55;;;9.38;;
23406;SDS011;11876;53.438;18.942;2023-12-28T14:02:48;89.07;;;37.97;;
23406;SDS011;11876;53.438;18.942;2023-12-28T14:05:51;20.15;;;10.75;;
23406;SDS011;11876;53.438;18.942;2023-12-28T14:08:53;12.68;;;8.32;;
23406;SDS011;11876;53.438;18.942;2023-12-28T14:11:56;13.32;;;8.50;;
23406;SDS011;11876;53.438;18.942;2023-12-28T14:14:58;20.00;;;11.70;;
23406;SDS011;11876;53.438;18.942;2023-12-28T14:18:00;14.88;;;8.05;;
23406;SDS011;11876;53.438;18.942;2023-12-28T14:21:06;13.52;;;8.30;;
23406;SDS011;11876;53.438;18.942;2023-12-28T14:24:10;20.15;;;13.85;;
23406;SDS011;11876;53.438;18.942;2023-12-28T14:27:13;18.33;;;9.35;;
23406;SDS011;11876;53.438;18.942;2023-12-28T14:30:16;14.40;;;8.57;;
23406;SDS011;11876;53.438;18.942;2023-12-28T14:33:19;21.77;;;13.65;;
23406;SDS011;11876;53.438;18.942;2023-12-28T14:36:40;12.85;;;8.13;;
23406;SDS011;11876;53.438;18.942;2023-12-28T14:39:43;16.65;;;11.15;;
23406;SDS011;11876;53.438;18.942;2023-12-28T14:42:46;18.63;;;10.45;;
23406;SDS011;11876;53.438;18.942;2023-12-28T14:45:49;22.95;;;13.38;;
23406;SDS011;11876;53.438;18.942;2023-12-28T14:48:53;29.83;;;16.02;;
23406;SDS011;11876;53.438;18.942;2023-12-28T14:51:56;27.27;;;14.70;;
23406;SDS011;11876;53.438;18.942;2023-12-28T14:54:58;29.90;;;16.73;;
23406;SDS011;11876;53.438;18.942;2023-12-28T14:58:01;23.98;;;13.57;;
23406;SDS011;11876;53.438;18.942;2023-12-28T15:01:04;23.48;;;13.40;;
23406;SDS011;11876;53.438;18.942;2023-12-28T15:04:07;30.73;;;16.23;;
23406;SDS011;11876;53.438;18.942;2023-12-28T15:07:10;32.47;;;19.10;;
23406;SDS011;11876;53.438;18.942;2023-12-28T15:10:12;30.38;;;16.63;;
23406;SDS011;11876;53.438;18.942;2023-12-28T15:13:16;20.97;;;12.80;;
23406;SDS011;11876;53.438;18.942;2023-12-28T15:16:18;18.15;;;11.15;;
23406;SDS011;11876;53.438;18.942;2023-12-28T15:19:21;16.90;;;9.80;;
23406;SDS011;11876;53.438;18.942;2023-12-28T15:22:24;15.20;;;10.75;;
23406;SDS011;11876;53.438;18.942;2023-12-28T15:25:26;14.13;;;9.75;;
23406;SDS011;11876;53.438;18.942;2023-12-28T15:28:29;17.02;;;11.55;;
23406;SDS011;11876;53.438;18.942;2023-12-28T15:31:34;13.95;;;9.27;;
23406;SDS011;11876;53.438;18.942;2023-12-28T15:34:37;18.70;;;10.20;;
23406;SDS011;11876;53.438;18.942;2023-12-28T15:37:39;15.25;;;9.15;;
23406;SDS011;11876;53.438;18.942;2023-12-28T15:40:42;16.00;;;11.35;;
23406;SDS011;11876;53.438;18.942;2023-12-28T15:43:44;15.82;;;10.43;;
23406;SDS011;11876;53.438;18.942;2023-12-28T15:46:47;17.08;;;10.40;;
23406;SDS011;11876;53.438;18.942;2023-12-28T15:49:49;19.98;;;11.70;;
23406;SDS011;11876;53.438;18.942;2023-12-28T15:52:52;15.93;;;9.98;;
23406;SDS011;11876;53.438;18.942;2023-12-28T15:55:54;20.45;;;12.18;;
23406;SDS011;11876;53.438;18.942;2023-12-28T15:59:13;21.45;;;12.80;;
23406;SDS011;11876;53.438;18.942;2023-12-28T16:02:15;19.73;;;12.00;;
23406;SDS011;11876;53.438;18.942;2023-12-28T16:05:18;24.58;;;13.45;;
23406;SDS011;11876;53.438;18.942;2023-12-28T16:08:20;23.20;;;12.27;;
23406;SDS011;11876;53.438;18.942;2023-12-28T16:11:22;22.20;;;13.18;;
23406;SDS011;11876;53.438;18.942;2023-12-28T16:14:25;23.15;;;12.50;;
23406;SDS011;11876;53.438;18.942;2023-12-28T16:17:27;27.20;;;16.38;;
23406;SDS011;11876;53.438;18.942;2023-12-28T16:20:30;31.75;;;17.58;;
23406;SDS011;11876;53.438;18.942;2023-12-28T16:23:33;25.08;;;13.13;;
23406;SDS011;11876;53.438;18.942;2023-12-28T16:26:36;27.95;;;13.60;;
23406;SDS011;11876;53.438;18.942;2023-12-28T16:29:38;24.48;;;13.25;;
23406;SDS011;11876;53.438;18.942;2023-12-28T16:32:42;24.88;;;15.50;;
23406;SDS011;11876;53.438;18.942;2023-12-28T16:35:47;24.75;;;14.07;;
23406;SDS011;11876;53.438;18.942;2023-12-28T16:38:50;28.05;;;16.75;;
23406;SDS011;11876;53.438;18.942;2023-12-28T16:41:52;23.30;;;14.13;;
23406;SDS011;11876;53.438;18.942;2023-12-28T16:44:54;88.88;;;45.92;;
23406;SDS011;11876;53.438;18.942;2023-12-28T16:47:57;19.67;;;11.25;;
23406;SDS011;11876;53.438;18.942;2023-12-28T16:51:00;18.15;;;10.82;;
23406;SDS011;11876;53.438;18.942;2023-12-28T16:54:04;22.05;;;11.30;;
23406;SDS011;11876;53.438;18.942;2023-12-28T16:57:06;27.48;;;13.85;;
23406;SDS011;11876;53.438;18.942;2023-12-28T17:00:09;23.23;;;13.00;;
23406;SDS011;11876;53.438;18.942;2023-12-28T17:06:15;19.17;;;12.13;;
23406;SDS011;11876;53.438;18.942;2023-12-28T17:09:19;16.90;;;10.20;;
23406;SDS011;11876;53.438;18.942;2023-12-28T17:12:26;17.92;;;10.57;;
23406;SDS011;11876;53.438;18.942;2023-12-28T17:15:31;39.22;;;23.30;;
23406;SDS011;11876;53.438;18.942;2023-12-28T17:18:37;22.38;;;13.02;;
23406;SDS011;11876;53.438;18.942;2023-12-28T17:21:40;25.48;;;13.60;;
23406;SDS011;11876;53.438;18.942;2023-12-28T17:24:47;28.50;;;13.88;;
23406;SDS011;11876;53.438;18.942;2023-12-28T17:27:54;23.08;;;13.82;;
23406;SDS011;11876;53.438;18.942;2023-12-28T17:30:58;22.33;;;12.20;;
23406;SDS011;11876;53.438;18.942;2023-12-28T17:34:02;17.42;;;10.18;;
23406;SDS011;11876;53.438;18.942;2023-12-28T17:37:05;21.48;;;11.05;;
23406;SDS011;11876;53.438;18.942;2023-12-28T17:40:08;22.67;;;12.07;;
23406;SDS011;11876;53.438;18.942;2023-12-28T17:43:14;29.10;;;14.15;;
23406;SDS011;11876;53.438;18.942;2023-12-28T17:47:02;56.35;;;30.17;;
23406;SDS011;11876;53.438;18.942;2023-12-28T17:49:54;23.67;;;12.68;;
23406;SDS011;11876;53.438;18.942;2023-12-28T17:52:56;17.73;;;11.57;;